MOL Celebration — C6WW7 — position and weather

sailwx.info

Track history (hours):
 
Tides and Currents Weather Stations Pressure Air Temp Water Temp Dewpoint Dewpoint Depression Visibility Wind Speed Wind Dir Waves Ship Positions

MOL Celebration

Last reported at 2017-Mar-20 00:00 UTC. Time now 2017-Mar-27 00:52 UTC.
Position N 53°48' E 179°48'.

Length 316 m; draft 13.2 m.

Type: Ship (hazmat cat D). MMSI: 309901000.

Wind from 120 at 22 knots

Air temperature 3.0 ° C
Visibility: greater than 5.4 NM
Water temperature 3.0 ° C

Date/timePositionNaut miles runAvg speedWind from/ knotsBaromVisibWave heightAir tempDewpointWater temp
2017-Mar-20 00:00N 53°48' E 179°48'83016.6 120 / 22 5.4 3.0 3.0
2017-Mar-17 22:00N 48°18' W 160°00'   180 / 41020.0 5.4 4.0 5.0
2017-Mar-13 21:13N 38°10' W 125°35'1317.9
2017-Mar-13 20:30N 38°09' W 125°19'1717.9
2017-Mar-13 19:34N 38°10' W 124°57'1817.8
2017-Mar-13 18:33N 38°10' W 124°35'1817.6
2017-Mar-13 17:34N 38°09' W 124°12'1817.7
2017-Mar-13 16:34N 38°10' W 123°50'1817.7
2017-Mar-13 15:33N 38°09' W 123°27'1616.1
2017-Mar-13 14:34N 37°60' W 123°11'1817.7
2017-Mar-13 13:33N 37°51' W 122°51'1010.5
2017-Mar-13 12:34N 37°46' W 122°40'1414.2
2017-Mar-13 11:34N 37°48' W 122°22'2 2.0
2017-Mar-13 10:33N 37°49' W 122°20'0 0.0
2017-Mar-13 09:33N 37°49' W 122°20'0 0.0
2017-Mar-13 08:33N 37°49' W 122°20'0 0.0
2017-Mar-13 07:33N 37°49' W 122°20'0 0.0
2017-Mar-13 06:33N 37°49' W 122°20'0 0.0
2017-Mar-13 05:33N 37°49' W 122°20'0 0.0
2017-Mar-13 04:33N 37°49' W 122°20'0 0.0
2017-Mar-13 03:33N 37°49' W 122°20'0 0.0
2017-Mar-13 02:33N 37°49' W 122°20'0 0.0
2017-Mar-13 01:33N 37°49' W 122°20'0 0.0
2017-Mar-13 00:33N 37°49' W 122°20'0 0.0
2017-Mar-12 23:33N 37°49' W 122°20'0 0.0
2017-Mar-12 22:33N 37°49' W 122°20'0 0.0
2017-Mar-12 21:33N 37°49' W 122°20'0 0.0
2017-Mar-12 20:33N 37°49' W 122°20'0 0.0
2017-Mar-12 19:33N 37°49' W 122°20'0 0.0
2017-Mar-12 18:33N 37°49' W 122°20'0 0.0
2017-Mar-12 17:33N 37°49' W 122°20'0 0.0
2017-Mar-12 16:33N 37°49' W 122°20'0 0.0
2017-Mar-12 15:33N 37°49' W 122°20'0 0.2
2017-Mar-12 14:33N 37°49' W 122°20'1111.2
2017-Mar-12 13:34N 37°47' W 122°34'8 7.5
2017-Mar-12 12:33N 37°41' W 122°40'1110.7
2017-Mar-12 11:33N 37°31' W 122°40'1312.7
2017-Mar-12 10:33N 37°18' W 122°40'9 9.0
2017-Mar-12 09:33N 37°09' W 122°40'1918.9
2017-Mar-12 08:33N 36°50' W 122°40'2120.8
2017-Mar-12 07:33N 36°30' W 122°34'2121.3
2017-Mar-12 06:33N 36°10' W 122°26'2121.2
2017-Mar-12 05:33N 35°49' W 122°17'2120.8
2017-Mar-12 04:33N 35°32' W 122°03'2120.9
2017-Mar-12 03:33N 35°16' W 121°47'2121.1
2017-Mar-12 02:33N 34°59' W 121°32'2121.3
2017-Mar-12 01:33N 34°42' W 121°16'2120.7
2017-Mar-12 00:33N 34°28' W 120°57'2020.1
2017-Mar-11 23:33N 34°22' W 120°34'2020.0
2017-Mar-11 22:33N 34°17' W 120°10'2019.6
2017-Mar-11 21:34N 34°12' W 119°48'1918.8
2017-Mar-11 20:33N 34°07' W 119°26'1717.4
2017-Mar-11 19:33N 34°00' W 119°06'1212.0
2017-Mar-11 18:33N 33°54' W 118°54'1211.6
2017-Mar-11 17:33N 33°48' W 118°42'1211.6
2017-Mar-11 16:34N 33°42' W 118°30'1110.7
2017-Mar-11 15:33N 33°38' W 118°18'6 6.0
2017-Mar-11 14:33N 33°44' W 118°17'2 1.8
2017-Mar-11 13:33N 33°46' W 118°16'0 0.1
2017-Mar-11 12:33N 33°46' W 118°16'0 0.0
2017-Mar-11 11:33N 33°46' W 118°16'0 0.0
2017-Mar-11 10:31N 33°46' W 118°16'0 0.0
2017-Mar-11 09:31N 33°46' W 118°16'0 0.0
2017-Mar-11 08:31N 33°46' W 118°16'0 0.0
2017-Mar-11 07:31N 33°46' W 118°16'0 0.0
2017-Mar-11 06:31N 33°46' W 118°16'0 0.0
2017-Mar-11 05:31N 33°46' W 118°16'0 0.0
2017-Mar-11 04:31N 33°46' W 118°16'0 0.0
2017-Mar-11 03:31N 33°46' W 118°16'0 0.0
2017-Mar-11 02:31N 33°46' W 118°16'0 0.0
2017-Mar-11 01:31N 33°46' W 118°16'0 0.0
2017-Mar-11 00:31N 33°46' W 118°16'0 0.0
2017-Mar-10 23:31N 33°46' W 118°16'0 0.0
2017-Mar-10 22:31N 33°46' W 118°16'0 0.0
2017-Mar-10 21:31N 33°46' W 118°16'0 0.0
2017-Mar-10 20:28N 33°46' W 118°16'0 0.0
2017-Mar-10 19:25N 33°46' W 118°16'0 0.0
2017-Mar-10 18:31N 33°46' W 118°16'0 0.0
2017-Mar-10 17:28N 33°46' W 118°16'0 0.0
2017-Mar-10 16:31N 33°46' W 118°16'0 0.0
2017-Mar-10 15:31N 33°46' W 118°16'0 0.0
2017-Mar-10 14:28N 33°46' W 118°16'0 0.0
2017-Mar-10 13:31N 33°46' W 118°16'0 0.0
2017-Mar-10 12:31N 33°46' W 118°16'0 0.0
2017-Mar-10 11:31N 33°46' W 118°16'0 0.0
2017-Mar-10 10:31N 33°46' W 118°16'0 0.0
2017-Mar-10 09:31N 33°46' W 118°16'0 0.0
2017-Mar-10 08:31N 33°46' W 118°16'0 0.0
2017-Mar-10 07:31N 33°46' W 118°16'0 0.0
2017-Mar-10 06:28N 33°46' W 118°16'0 0.0
2017-Mar-10 05:31N 33°46' W 118°16'0 0.0
2017-Mar-10 04:31N 33°46' W 118°16'0 0.0
2017-Mar-10 03:13N 33°46' W 118°16'0 0.0
2017-Mar-10 02:28N 33°46' W 118°16'0 0.1
2017-Mar-10 01:28N 33°46' W 118°16'0 0.3
2017-Mar-10 00:25N 33°46' W 118°16'  
Track history (hours):
 
Tides and Currents Weather Stations Pressure Air Temp Water Temp Dewpoint Dewpoint Depression Visibility Wind Speed Wind Dir Waves Ship Positions

MOL Celebration

Last reported at 2017-Mar-20 00:00 UTC. Time now 2017-Mar-27 00:52 UTC.
Position N 53°48' E 179°48'.

Length 316 m; draft 13.2 m.

Type: Ship (hazmat cat D). MMSI: 309901000.

Wind from 120 at 22 knots

Air temperature 3.0 ° C
Visibility: greater than 5.4 NM
Water temperature 3.0 ° C

Date/timePositionNaut miles runAvg speedWind from/ knotsBaromVisibWave heightAir tempDewpointWater temp
2017-Mar-20 00:00N 53°48' E 179°48'83016.6 120 / 22 5.4 3.0 3.0
2017-Mar-17 22:00N 48°18' W 160°00'   180 / 41020.0 5.4 4.0 5.0
2017-Mar-13 21:13N 38°10' W 125°35'1317.9
2017-Mar-13 20:30N 38°09' W 125°19'1717.9
2017-Mar-13 19:34N 38°10' W 124°57'1817.8
2017-Mar-13 18:33N 38°10' W 124°35'1817.6
2017-Mar-13 17:34N 38°09' W 124°12'1817.7
2017-Mar-13 16:34N 38°10' W 123°50'1817.7
2017-Mar-13 15:33N 38°09' W 123°27'1616.1
2017-Mar-13 14:34N 37°60' W 123°11'1817.7
2017-Mar-13 13:33N 37°51' W 122°51'1010.5
2017-Mar-13 12:34N 37°46' W 122°40'1414.2
2017-Mar-13 11:34N 37°48' W 122°22'2 2.0
2017-Mar-13 10:33N 37°49' W 122°20'0 0.0
2017-Mar-13 09:33N 37°49' W 122°20'0 0.0
2017-Mar-13 08:33N 37°49' W 122°20'0 0.0
2017-Mar-13 07:33N 37°49' W 122°20'0 0.0
2017-Mar-13 06:33N 37°49' W 122°20'0 0.0
2017-Mar-13 05:33N 37°49' W 122°20'0 0.0
2017-Mar-13 04:33N 37°49' W 122°20'0 0.0
2017-Mar-13 03:33N 37°49' W 122°20'0 0.0
2017-Mar-13 02:33N 37°49' W 122°20'0 0.0
2017-Mar-13 01:33N 37°49' W 122°20'0 0.0
2017-Mar-13 00:33N 37°49' W 122°20'0 0.0
2017-Mar-12 23:33N 37°49' W 122°20'0 0.0
2017-Mar-12 22:33N 37°49' W 122°20'0 0.0
2017-Mar-12 21:33N 37°49' W 122°20'0 0.0
2017-Mar-12 20:33N 37°49' W 122°20'0 0.0
2017-Mar-12 19:33N 37°49' W 122°20'0 0.0
2017-Mar-12 18:33N 37°49' W 122°20'0 0.0
2017-Mar-12 17:33N 37°49' W 122°20'0 0.0
2017-Mar-12 16:33N 37°49' W 122°20'0 0.0
2017-Mar-12 15:33N 37°49' W 122°20'0 0.2
2017-Mar-12 14:33N 37°49' W 122°20'1111.2
2017-Mar-12 13:34N 37°47' W 122°34'8 7.5
2017-Mar-12 12:33N 37°41' W 122°40'1110.7
2017-Mar-12 11:33N 37°31' W 122°40'1312.7
2017-Mar-12 10:33N 37°18' W 122°40'9 9.0
2017-Mar-12 09:33N 37°09' W 122°40'1918.9
2017-Mar-12 08:33N 36°50' W 122°40'2120.8
2017-Mar-12 07:33N 36°30' W 122°34'2121.3
2017-Mar-12 06:33N 36°10' W 122°26'2121.2
2017-Mar-12 05:33N 35°49' W 122°17'2120.8
2017-Mar-12 04:33N 35°32' W 122°03'2120.9
2017-Mar-12 03:33N 35°16' W 121°47'2121.1
2017-Mar-12 02:33N 34°59' W 121°32'2121.3
2017-Mar-12 01:33N 34°42' W 121°16'2120.7
2017-Mar-12 00:33N 34°28' W 120°57'2020.1
2017-Mar-11 23:33N 34°22' W 120°34'2020.0
2017-Mar-11 22:33N 34°17' W 120°10'2019.6
2017-Mar-11 21:34N 34°12' W 119°48'1918.8
2017-Mar-11 20:33N 34°07' W 119°26'1717.4
2017-Mar-11 19:33N 34°00' W 119°06'1212.0
2017-Mar-11 18:33N 33°54' W 118°54'1211.6
2017-Mar-11 17:33N 33°48' W 118°42'1211.6
2017-Mar-11 16:34N 33°42' W 118°30'1110.7
2017-Mar-11 15:33N 33°38' W 118°18'6 6.0
2017-Mar-11 14:33N 33°44' W 118°17'2 1.8
2017-Mar-11 13:33N 33°46' W 118°16'0 0.1
2017-Mar-11 12:33N 33°46' W 118°16'0 0.0
2017-Mar-11 11:33N 33°46' W 118°16'0 0.0
2017-Mar-11 10:31N 33°46' W 118°16'0 0.0
2017-Mar-11 09:31N 33°46' W 118°16'0 0.0
2017-Mar-11 08:31N 33°46' W 118°16'0 0.0
2017-Mar-11 07:31N 33°46' W 118°16'0 0.0
2017-Mar-11 06:31N 33°46' W 118°16'0 0.0
2017-Mar-11 05:31N 33°46' W 118°16'0 0.0
2017-Mar-11 04:31N 33°46' W 118°16'0 0.0
2017-Mar-11 03:31N 33°46' W 118°16'0 0.0
2017-Mar-11 02:31N 33°46' W 118°16'0 0.0
2017-Mar-11 01:31N 33°46' W 118°16'0 0.0
2017-Mar-11 00:31N 33°46' W 118°16'0 0.0
2017-Mar-10 23:31N 33°46' W 118°16'0 0.0
2017-Mar-10 22:31N 33°46' W 118°16'0 0.0
2017-Mar-10 21:31N 33°46' W 118°16'0 0.0
2017-Mar-10 20:28N 33°46' W 118°16'0 0.0
2017-Mar-10 19:25N 33°46' W 118°16'0 0.0
2017-Mar-10 18:31N 33°46' W 118°16'0 0.0
2017-Mar-10 17:28N 33°46' W 118°16'0 0.0
2017-Mar-10 16:31N 33°46' W 118°16'0 0.0
2017-Mar-10 15:31N 33°46' W 118°16'0 0.0
2017-Mar-10 14:28N 33°46' W 118°16'0 0.0
2017-Mar-10 13:31N 33°46' W 118°16'0 0.0
2017-Mar-10 12:31N 33°46' W 118°16'0 0.0
2017-Mar-10 11:31N 33°46' W 118°16'0 0.0
2017-Mar-10 10:31N 33°46' W 118°16'0 0.0
2017-Mar-10 09:31N 33°46' W 118°16'0 0.0
2017-Mar-10 08:31N 33°46' W 118°16'0 0.0
2017-Mar-10 07:31N 33°46' W 118°16'0 0.0
2017-Mar-10 06:28N 33°46' W 118°16'0 0.0
2017-Mar-10 05:31N 33°46' W 118°16'0 0.0
2017-Mar-10 04:31N 33°46' W 118°16'0 0.0
2017-Mar-10 03:13N 33°46' W 118°16'0 0.0
2017-Mar-10 02:28N 33°46' W 118°16'0 0.1
2017-Mar-10 01:28N 33°46' W 118°16'0 0.3
2017-Mar-10 00:25N 33°46' W 118°16'  

Dump ship's entire track history